createdAt,value
2023-02-16T00:00:31.548Z,-0.24
2023-02-16T00:03:20.568Z,-0.29
2023-02-16T00:05:49.009Z,-0.31
2023-02-16T00:08:27.427Z,-0.33
2023-02-16T00:11:19.751Z,-0.34
2023-02-16T00:13:56.847Z,-0.38
2023-02-16T00:16:33.174Z,-0.43
2023-02-16T00:19:03.057Z,-0.45
2023-02-16T00:21:30.111Z,-0.48
2023-02-16T00:23:57.452Z,-0.50
2023-02-16T00:26:45.487Z,-0.54
2023-02-16T00:29:16.633Z,-0.56
2023-02-16T00:31:43.768Z,-0.58
2023-02-16T00:34:26.131Z,-0.56
2023-02-16T00:36:53.905Z,-0.54
2023-02-16T00:39:34.342Z,-0.52
2023-02-16T00:42:05.117Z,-0.49
2023-02-16T00:44:37.713Z,-0.46
2023-02-16T00:47:12.059Z,-0.43
2023-02-16T00:49:44.909Z,-0.38
2023-02-16T00:52:30.906Z,-0.30
2023-02-16T00:55:02.924Z,-0.21
2023-02-16T00:57:34.075Z,-0.16
2023-02-16T01:00:06.482Z,-0.11
2023-02-16T01:02:36.610Z,-0.07
2023-02-16T01:05:11.612Z,-0.04
2023-02-16T01:08:00.528Z,-0.03
2023-02-16T01:11:06.832Z,-0.01
2023-02-16T01:13:48.084Z,-0.02
2023-02-16T01:16:20.924Z,-0.04
2023-02-16T01:18:55.940Z,-0.06
2023-02-16T01:21:33.205Z,-0.09
2023-02-16T01:24:20.379Z,-0.14
2023-02-16T01:27:00.798Z,-0.19
2023-02-16T01:29:30.269Z,-0.22
2023-02-16T01:32:02.378Z,-0.25
2023-02-16T01:34:29.610Z,-0.28
2023-02-16T01:36:58.411Z,-0.32
2023-02-16T01:39:25.600Z,-0.36
2023-02-16T01:42:04.279Z,-0.41
2023-02-16T01:44:35.552Z,-0.46
2023-02-16T01:47:24.720Z,-0.52
2023-02-16T01:49:51.989Z,-0.56
2023-02-16T01:52:31.360Z,-0.58
2023-02-16T01:55:08.157Z,-0.58
2023-02-16T01:57:40.150Z,-0.57
2023-02-16T02:00:30.595Z,-0.58
2023-02-16T02:03:21.668Z,-0.55
2023-02-16T02:05:50.174Z,-0.54
2023-02-16T02:08:43.317Z,-0.53
2023-02-16T02:11:19.553Z,-0.53
2023-02-16T02:13:59.324Z,-0.54
2023-02-16T02:16:30.635Z,-0.54
2023-02-16T02:19:01.387Z,-0.56
2023-02-16T02:22:15.507Z,-0.58
2023-02-16T02:25:12.237Z,-0.57
2023-02-16T02:27:46.089Z,-0.57
2023-02-16T02:30:29.744Z,-0.57
2023-02-16T02:33:15.601Z,-0.58
2023-02-16T02:35:56.502Z,-0.58
2023-02-16T02:38:33.330Z,-0.61
2023-02-16T02:41:16.199Z,-0.62
2023-02-16T02:43:51.985Z,-0.65
2023-02-16T02:46:35.343Z,-0.69
2023-02-16T02:49:23.462Z,-0.71
2023-02-16T02:51:51.501Z,-0.72
2023-02-16T02:54:42.258Z,-0.72
2023-02-16T02:57:35.069Z,-0.73
2023-02-16T03:00:26.638Z,-0.72
2023-02-16T03:02:59.034Z,-0.73
2023-02-16T03:05:28.623Z,-0.76
2023-02-16T03:08:06.479Z,-0.78
2023-02-16T03:10:55.185Z,-0.82
2023-02-16T03:13:27.020Z,-0.87
2023-02-16T03:15:57.587Z,-0.91
2023-02-16T03:18:45.770Z,-0.95
2023-02-16T03:21:33.306Z,-0.99
2023-02-16T03:24:18.860Z,-1.02
2023-02-16T03:27:04.064Z,-1.07
2023-02-16T03:29:33.522Z,-1.09
2023-02-16T03:32:01.910Z,-1.10
2023-02-16T03:34:30.601Z,-1.12
2023-02-16T03:37:00.908Z,-1.10
2023-02-16T03:39:31.242Z,-1.10
2023-02-16T03:41:59.299Z,-1.09
2023-02-16T03:44:26.399Z,-1.09
2023-02-16T03:46:53.475Z,-1.10
2023-02-16T03:49:21.690Z,-1.11
2023-02-16T03:51:49.158Z,-1.13
2023-02-16T03:54:18.874Z,-1.14
2023-02-16T03:57:00.921Z,-1.16
2023-02-16T03:59:28.784Z,-1.19
2023-02-16T04:01:56.361Z,-1.21
2023-02-16T04:04:23.393Z,-1.23
2023-02-16T04:06:50.744Z,-1.25
2023-02-16T04:09:17.577Z,-1.27
2023-02-16T04:12:13.347Z,-1.29
2023-02-16T04:15:00.546Z,-1.30
2023-02-16T04:17:48.768Z,-1.30
2023-02-16T04:20:20.691Z,-1.29
2023-02-16T04:22:48.497Z,-1.30
2023-02-16T04:25:16.595Z,-1.29
2023-02-16T04:27:56.032Z,-1.29
2023-02-16T04:30:30.860Z,-1.30
2023-02-16T04:33:01.210Z,-1.30
2023-02-16T04:35:35.796Z,-1.30
2023-02-16T04:38:03.268Z,-1.29
2023-02-16T04:40:49.020Z,-1.28
2023-02-16T04:43:16.094Z,-1.26
2023-02-16T04:45:43.101Z,-1.25
2023-02-16T04:48:10.241Z,-1.24
2023-02-16T04:50:40.193Z,-1.24
2023-02-16T04:53:12.198Z,-1.21
2023-02-16T04:55:39.388Z,-1.18
2023-02-16T04:58:17.588Z,-1.16
2023-02-16T05:00:45.013Z,-1.14
2023-02-16T05:03:14.526Z,-1.13
2023-02-16T05:05:50.625Z,-1.12
2023-02-16T05:08:22.300Z,-1.11
2023-02-16T05:11:08.667Z,-1.11
2023-02-16T05:14:14.307Z,-1.10
2023-02-16T05:17:01.892Z,-1.10
2023-02-16T05:19:51.051Z,-1.10
2023-02-16T05:22:22.048Z,-1.11
2023-02-16T05:24:49.658Z,-1.10
2023-02-16T05:27:18.496Z,-1.10
2023-02-16T05:29:45.620Z,-1.09
2023-02-16T05:32:12.934Z,-1.10
2023-02-16T05:34:40.083Z,-1.10
2023-02-16T05:37:07.945Z,-1.09
2023-02-16T05:39:37.944Z,-1.08
2023-02-16T05:42:14.541Z,-1.07
2023-02-16T05:44:44.625Z,-1.07
2023-02-16T05:47:21.771Z,-1.07
2023-02-16T05:49:58.794Z,-1.07
2023-02-16T05:52:28.959Z,-1.06
2023-02-16T05:55:07.532Z,-1.05
2023-02-16T05:57:35.819Z,-1.01
2023-02-16T06:00:03.461Z,-0.98
2023-02-16T06:02:40.102Z,-0.96
2023-02-16T06:05:10.725Z,-0.91
2023-02-16T06:07:49.017Z,-0.88
2023-02-16T06:10:36.123Z,-0.82
2023-02-16T06:13:08.251Z,-0.75
2023-02-16T06:15:35.218Z,-0.66
2023-02-16T06:18:05.575Z,-0.57
2023-02-16T06:20:32.772Z,-0.49
2023-02-16T06:23:20.407Z,-0.39
2023-02-16T06:25:52.555Z,-0.29
2023-02-16T06:28:39.931Z,-0.18
2023-02-16T06:31:22.654Z,-0.08
2023-02-16T06:33:53.121Z,0.02
2023-02-16T06:36:42.530Z,0.12
2023-02-16T06:39:09.988Z,0.23
2023-02-16T06:41:56.006Z,0.36
2023-02-16T06:44:44.383Z,0.49
2023-02-16T06:47:22.583Z,0.58
2023-02-16T06:50:14.516Z,0.67
2023-02-16T06:53:02.031Z,0.87
2023-02-16T06:55:50.763Z,1.09
2023-02-16T06:58:38.107Z,1.32
2023-02-16T07:01:05.748Z,1.47
2023-02-16T07:03:55.342Z,1.76
2023-02-16T07:06:32.725Z,2.09
2023-02-16T07:09:00.205Z,2.39
2023-02-16T07:11:38.836Z,2.62
2023-02-16T07:14:06.137Z,2.74
2023-02-16T07:16:33.655Z,2.90
2023-02-16T07:19:01.112Z,3.11
2023-02-16T07:21:48.378Z,3.35
2023-02-16T07:24:18.272Z,3.52
2023-02-16T07:26:45.240Z,3.76
2023-02-16T07:29:15.062Z,4.05
2023-02-16T07:31:42.101Z,4.27
2023-02-16T07:34:09.347Z,4.44
2023-02-16T07:36:36.497Z,4.62
2023-02-16T07:39:03.680Z,4.81
2023-02-16T07:41:30.738Z,5.02
2023-02-16T07:44:03.803Z,5.14
2023-02-16T07:46:33.260Z,5.23
2023-02-16T07:49:09.275Z,5.34
2023-02-16T07:51:40.625Z,5.45
2023-02-16T07:54:08.205Z,5.52
2023-02-16T07:56:36.781Z,5.67
2023-02-16T07:59:24.430Z,5.97
2023-02-16T08:01:51.851Z,6.29
2023-02-16T08:04:19.203Z,6.65
2023-02-16T08:06:47.154Z,7.07
2023-02-16T08:09:14.038Z,7.40
2023-02-16T08:11:41.046Z,7.65
2023-02-16T08:14:17.493Z,7.85
2023-02-16T08:16:44.649Z,8.03
2023-02-16T08:19:13.267Z,8.34
2023-02-16T08:21:40.325Z,8.70
2023-02-16T08:24:09.536Z,9.04
2023-02-16T08:26:41.356Z,9.44
2023-02-16T08:29:12.923Z,9.71
2023-02-16T08:31:40.351Z,9.96
2023-02-16T08:34:08.093Z,10.08
2023-02-16T08:36:36.393Z,10.19
2023-02-16T08:39:05.462Z,10.38
2023-02-16T08:41:35.371Z,10.53
2023-02-16T08:44:02.697Z,10.53
2023-02-16T08:46:30.453Z,10.56
2023-02-16T08:48:59.782Z,10.51
2023-02-16T08:51:28.028Z,10.36
2023-02-16T08:53:55.991Z,10.15
2023-02-16T08:56:23.779Z,10.15
2023-02-16T08:58:51.051Z,10.19
2023-02-16T09:01:18.108Z,10.16
2023-02-16T09:03:47.382Z,10.22
2023-02-16T09:06:16.388Z,10.25
2023-02-16T09:08:44.716Z,10.25
2023-02-16T09:11:14.721Z,10.35
2023-02-16T09:13:43.401Z,10.45
2023-02-16T09:16:12.940Z,10.47
2023-02-16T09:18:45.082Z,10.47
2023-02-16T09:21:15.900Z,10.54
2023-02-16T09:23:47.530Z,10.59
2023-02-16T09:26:15.352Z,10.79
2023-02-16T09:28:43.463Z,10.97
2023-02-16T09:31:15.541Z,11.16
2023-02-16T09:33:43.736Z,11.28
2023-02-16T09:36:13.859Z,11.37
2023-02-16T09:38:41.678Z,11.40
2023-02-16T09:41:24.540Z,11.34
2023-02-16T09:43:57.364Z,11.24
2023-02-16T09:46:27.493Z,11.12
2023-02-16T09:48:55.102Z,10.99
2023-02-16T09:51:33.799Z,10.88
2023-02-16T09:54:06.874Z,10.87
2023-02-16T09:56:40.355Z,10.92
2023-02-16T09:59:14.940Z,11.08
2023-02-16T10:01:51.266Z,11.23
2023-02-16T10:04:39.060Z,11.32
2023-02-16T10:07:23.444Z,11.44
2023-02-16T10:09:55.260Z,11.40
2023-02-16T10:12:28.206Z,11.31
2023-02-16T10:14:58.043Z,11.31
2023-02-16T10:17:33.487Z,11.31
2023-02-16T10:20:10.291Z,11.24
2023-02-16T10:22:51.098Z,11.03
2023-02-16T10:25:23.376Z,10.92
2023-02-16T10:27:58.354Z,10.82
2023-02-16T10:30:28.623Z,10.82
2023-02-16T10:33:04.243Z,10.91
2023-02-16T10:35:46.656Z,11.07
2023-02-16T10:38:22.969Z,11.17
2023-02-16T10:40:56.444Z,11.15
2023-02-16T10:43:38.963Z,11.22
2023-02-16T10:46:06.734Z,11.37
2023-02-16T10:48:35.343Z,11.49
2023-02-16T10:51:07.372Z,11.56
2023-02-16T10:53:42.085Z,11.56
2023-02-16T10:56:40.049Z,11.58
2023-02-16T10:59:13.946Z,11.55
2023-02-16T11:01:45.019Z,11.49
2023-02-16T11:04:33.672Z,11.28
2023-02-16T11:07:09.908Z,11.07
2023-02-16T11:09:37.461Z,10.92
2023-02-16T11:12:15.106Z,10.83
2023-02-16T11:14:48.755Z,10.75
2023-02-16T11:17:18.738Z,10.72
2023-02-16T11:19:53.369Z,10.75
2023-02-16T11:22:32.821Z,10.83
2023-02-16T11:25:14.904Z,10.80
2023-02-16T11:27:52.826Z,10.68
2023-02-16T11:30:29.485Z,10.55
2023-02-16T11:33:23.593Z,10.46
2023-02-16T11:35:51.217Z,10.40
2023-02-16T11:38:33.180Z,10.42
2023-02-16T11:41:02.011Z,10.48
2023-02-16T11:43:33.694Z,10.48
2023-02-16T11:46:16.747Z,10.51
2023-02-16T11:48:46.470Z,10.48
2023-02-16T11:51:15.790Z,10.38
2023-02-16T11:53:44.445Z,10.37
2023-02-16T11:56:27.588Z,10.36
2023-02-16T11:59:09.059Z,10.34
2023-02-16T12:02:04.981Z,10.38
2023-02-16T12:04:45.553Z,10.33
2023-02-16T12:07:24.086Z,10.30
2023-02-16T12:09:57.172Z,10.27
2023-02-16T12:12:37.325Z,10.24
2023-02-16T12:15:22.395Z,10.22
2023-02-16T12:18:08.481Z,10.21
2023-02-16T12:20:46.802Z,10.24
2023-02-16T12:23:29.948Z,10.20
2023-02-16T12:26:11.513Z,10.13
2023-02-16T12:28:49.247Z,10.07
2023-02-16T12:31:29.569Z,10.04
2023-02-16T12:34:07.532Z,10.06
2023-02-16T12:36:52.214Z,9.99
2023-02-16T12:39:31.337Z,9.87
2023-02-16T12:42:26.378Z,9.82
2023-02-16T12:45:19.168Z,9.93
2023-02-16T12:47:51.223Z,9.97
2023-02-16T12:50:23.132Z,9.94
2023-02-16T12:52:57.084Z,9.97
2023-02-16T12:55:32.160Z,9.96
2023-02-16T12:58:09.865Z,9.90
2023-02-16T13:00:46.672Z,9.78
2023-02-16T13:03:27.410Z,9.67
2023-02-16T13:06:13.160Z,9.55
2023-02-16T13:08:58.182Z,9.43
2023-02-16T13:11:31.160Z,9.43
2023-02-16T13:14:05.131Z,9.37
2023-02-16T13:16:43.454Z,9.35
2023-02-16T13:19:15.323Z,9.36
2023-02-16T13:22:10.656Z,9.40
2023-02-16T13:24:50.503Z,9.43
2023-02-16T13:27:31.453Z,9.44
2023-02-16T13:30:38.560Z,9.39
2023-02-16T13:33:29.556Z,9.39
2023-02-16T13:36:11.620Z,9.33
2023-02-16T13:39:27.424Z,9.31
2023-02-16T13:42:22.869Z,9.31
2023-02-16T13:44:52.478Z,9.27
2023-02-16T13:47:42.431Z,9.25
2023-02-16T13:50:34.377Z,9.23
2023-02-16T13:53:17.236Z,9.19
2023-02-16T13:55:44.565Z,9.23
2023-02-16T13:58:30.804Z,9.23
2023-02-16T14:00:59.120Z,9.18
2023-02-16T14:03:40.440Z,9.03
2023-02-16T14:06:40.077Z,8.83
2023-02-16T14:09:48.850Z,8.67
2023-02-16T14:12:40.882Z,8.58
2023-02-16T14:15:19.238Z,8.53
2023-02-16T14:17:49.429Z,8.43
2023-02-16T14:20:31.283Z,8.32
2023-02-16T14:23:00.183Z,8.23
2023-02-16T14:25:39.464Z,8.18
2023-02-16T14:28:57.029Z,8.15
2023-02-16T14:31:27.318Z,8.13
2023-02-16T14:34:03.087Z,8.06
2023-02-16T14:37:17.635Z,7.96
2023-02-16T14:40:08.525Z,7.88
2023-02-16T14:42:38.144Z,7.77
2023-02-16T14:45:22.408Z,7.69
2023-02-16T14:48:24.378Z,7.57
2023-02-16T14:51:36.335Z,7.46
2023-02-16T14:54:57.512Z,7.35
2023-02-16T14:57:29.940Z,7.25
2023-02-16T15:00:01.078Z,7.16
2023-02-16T15:02:31.890Z,7.06
2023-02-16T15:05:00.085Z,6.97
2023-02-16T15:07:31.736Z,6.92
2023-02-16T15:10:00.296Z,6.88
2023-02-16T15:12:40.669Z,6.81
2023-02-16T15:15:12.157Z,6.73
2023-02-16T15:17:44.964Z,6.66
2023-02-16T15:20:22.420Z,6.58
2023-02-16T15:22:53.892Z,6.48
2023-02-16T15:25:43.158Z,6.39
2023-02-16T15:28:22.674Z,6.29
2023-02-16T15:31:00.933Z,6.20
2023-02-16T15:33:40.816Z,6.12
2023-02-16T15:36:35.562Z,6.02
2023-02-16T15:39:10.507Z,5.96
2023-02-16T15:41:40.265Z,5.91
2023-02-16T15:44:29.701Z,5.86
2023-02-16T15:47:12.078Z,5.81
2023-02-16T15:49:39.394Z,5.75
2023-02-16T15:52:29.546Z,5.70
2023-02-16T15:55:01.824Z,5.64
2023-02-16T15:57:40.815Z,5.58
2023-02-16T16:00:20.900Z,5.54
2023-02-16T16:02:54.384Z,5.49
2023-02-16T16:05:43.449Z,5.43
2023-02-16T16:08:17.559Z,5.38
2023-02-16T16:10:56.702Z,5.33
2023-02-16T16:13:29.929Z,5.28
2023-02-16T16:16:07.097Z,5.24
2023-02-16T16:18:44.348Z,5.19
2023-02-16T16:21:25.069Z,5.15
2023-02-16T16:24:05.403Z,5.10
2023-02-16T16:26:38.296Z,5.07
2023-02-16T16:29:31.882Z,5.03
2023-02-16T16:31:59.089Z,4.98
2023-02-16T16:34:47.147Z,4.95
2023-02-16T16:37:37.454Z,4.91
2023-02-16T16:40:32.178Z,4.89
2023-02-16T16:43:21.964Z,4.86
2023-02-16T16:46:20.231Z,4.84
2023-02-16T16:49:17.548Z,4.82
2023-02-16T16:51:52.801Z,4.81
2023-02-16T16:54:40.605Z,4.79
2023-02-16T16:57:29.546Z,4.78
2023-02-16T17:00:19.045Z,4.76
2023-02-16T17:02:56.239Z,4.74
2023-02-16T17:05:44.077Z,4.72
2023-02-16T17:08:31.908Z,4.70
2023-02-16T17:11:26.312Z,4.67
2023-02-16T17:13:55.128Z,4.66
2023-02-16T17:16:25.702Z,4.65
2023-02-16T17:19:03.232Z,4.63
2023-02-16T17:21:33.346Z,4.61
2023-02-16T17:24:00.459Z,4.57
2023-02-16T17:26:36.361Z,4.56
2023-02-16T17:29:11.318Z,4.53
2023-02-16T17:31:58.778Z,4.49
2023-02-16T17:34:35.878Z,4.46
2023-02-16T17:37:07.419Z,4.44
2023-02-16T17:39:34.971Z,4.41
2023-02-16T17:42:03.090Z,4.40
2023-02-16T17:44:30.110Z,4.38
2023-02-16T17:46:57.274Z,4.35
2023-02-16T17:49:24.240Z,4.32
2023-02-16T17:52:02.976Z,4.32
2023-02-16T17:54:30.478Z,4.30
2023-02-16T17:56:57.400Z,4.27
2023-02-16T17:59:24.396Z,4.25
2023-02-16T18:01:54.404Z,4.22
2023-02-16T18:04:21.376Z,4.20
2023-02-16T18:06:48.586Z,4.20
2023-02-16T18:09:23.602Z,4.18
2023-02-16T18:11:53.332Z,4.16
2023-02-16T18:14:21.346Z,4.13
2023-02-16T18:16:54.053Z,4.11
2023-02-16T18:19:21.438Z,4.10
2023-02-16T18:21:48.441Z,4.08
2023-02-16T18:24:15.438Z,4.06
2023-02-16T18:26:45.609Z,4.03
2023-02-16T18:29:31.293Z,4.01
2023-02-16T18:31:58.635Z,3.96
2023-02-16T18:34:26.373Z,3.94
2023-02-16T18:36:53.615Z,3.91
2023-02-16T18:39:21.264Z,3.90
2023-02-16T18:41:48.196Z,3.89
2023-02-16T18:44:15.255Z,3.89
2023-02-16T18:46:42.674Z,3.87
2023-02-16T18:49:12.446Z,3.85
2023-02-16T18:51:39.460Z,3.84
2023-02-16T18:54:15.958Z,3.80
2023-02-16T18:56:43.104Z,3.78
2023-02-16T18:59:10.902Z,3.75
2023-02-16T19:01:38.502Z,3.71
2023-02-16T19:04:07.863Z,3.68
2023-02-16T19:06:35.025Z,3.64
2023-02-16T19:09:02.232Z,3.61
2023-02-16T19:11:30.823Z,3.58
2023-02-16T19:13:58.002Z,3.55
2023-02-16T19:16:25.878Z,3.52
2023-02-16T19:18:53.196Z,3.49
2023-02-16T19:21:20.508Z,3.46
2023-02-16T19:23:50.923Z,3.43
2023-02-16T19:26:19.086Z,3.40
2023-02-16T19:28:47.730Z,3.36
2023-02-16T19:31:21.572Z,3.34
2023-02-16T19:33:56.666Z,3.31
2023-02-16T19:36:44.878Z,3.28
2023-02-16T19:39:15.034Z,3.25
2023-02-16T19:41:56.006Z,3.24
2023-02-16T19:44:23.039Z,3.23
2023-02-16T19:46:50.240Z,3.20
2023-02-16T19:49:17.845Z,3.18
2023-02-16T19:51:47.646Z,3.16
2023-02-16T19:54:18.630Z,3.14
2023-02-16T19:56:48.490Z,3.11
2023-02-16T19:59:16.189Z,3.08
2023-02-16T20:02:03.721Z,3.04
2023-02-16T20:04:30.783Z,3.03
2023-02-16T20:06:59.998Z,3.01
2023-02-16T20:09:28.231Z,2.98
2023-02-16T20:12:15.599Z,2.96
2023-02-16T20:14:52.861Z,2.92
2023-02-16T20:17:22.959Z,2.89
2023-02-16T20:19:50.158Z,2.86
2023-02-16T20:22:37.821Z,2.84
2023-02-16T20:25:18.668Z,2.83
2023-02-16T20:27:48.884Z,2.80
2023-02-16T20:30:20.916Z,2.79
2023-02-16T20:32:59.861Z,2.77
2023-02-16T20:35:27.188Z,2.74
2023-02-16T20:37:54.331Z,2.72
2023-02-16T20:40:22.721Z,2.72
2023-02-16T20:43:09.906Z,2.71
2023-02-16T20:45:42.588Z,2.69
2023-02-16T20:48:10.604Z,2.67
2023-02-16T20:50:53.607Z,2.66
2023-02-16T20:53:20.756Z,2.66
2023-02-16T20:55:48.336Z,2.65
2023-02-16T20:58:35.947Z,2.63
2023-02-16T21:01:04.325Z,2.62
2023-02-16T21:03:49.422Z,2.60
2023-02-16T21:06:18.077Z,2.61
2023-02-16T21:08:45.259Z,2.60
2023-02-16T21:11:13.193Z,2.59
2023-02-16T21:13:43.165Z,2.56
2023-02-16T21:16:11.486Z,2.55
2023-02-16T21:18:50.388Z,2.55
2023-02-16T21:21:17.498Z,2.53
2023-02-16T21:23:56.713Z,2.54
2023-02-16T21:26:28.176Z,2.53
2023-02-16T21:29:07.310Z,2.54
2023-02-16T21:31:34.371Z,2.53
2023-02-16T21:34:14.406Z,2.53
2023-02-16T21:36:41.531Z,2.53
2023-02-16T21:39:08.895Z,2.54
2023-02-16T21:41:39.214Z,2.56
2023-02-16T21:44:08.699Z,2.57
2023-02-16T21:46:38.411Z,2.57
2023-02-16T21:49:06.676Z,2.57
2023-02-16T21:51:36.066Z,2.56
2023-02-16T21:54:43.646Z,2.57
2023-02-16T21:57:10.652Z,2.59
2023-02-16T21:59:38.314Z,2.59
2023-02-16T22:02:05.585Z,2.60
2023-02-16T22:04:33.134Z,2.60
2023-02-16T22:07:03.143Z,2.61
2023-02-16T22:09:33.363Z,2.62
2023-02-16T22:12:01.068Z,2.63
2023-02-16T22:14:48.687Z,2.63
2023-02-16T22:17:15.736Z,2.63
2023-02-16T22:20:03.758Z,2.62
2023-02-16T22:22:53.009Z,2.63
2023-02-16T22:25:20.372Z,2.62
2023-02-16T22:27:47.598Z,2.63
2023-02-16T22:30:33.259Z,2.63
2023-02-16T22:33:02.913Z,2.64
2023-02-16T22:35:30.068Z,2.63
2023-02-16T22:37:57.638Z,2.64
2023-02-16T22:40:24.630Z,2.65
2023-02-16T22:42:53.934Z,2.66
2023-02-16T22:45:24.342Z,2.67
2023-02-16T22:47:54.840Z,2.67
2023-02-16T22:50:22.500Z,2.68
2023-02-16T22:52:58.702Z,2.70
2023-02-16T22:55:25.943Z,2.71
2023-02-16T22:57:56.252Z,2.72
2023-02-16T23:00:27.133Z,2.73
2023-02-16T23:03:14.404Z,2.74
2023-02-16T23:05:42.124Z,2.74
2023-02-16T23:08:12.802Z,2.73
2023-02-16T23:10:59.822Z,2.74
2023-02-16T23:13:27.569Z,2.75
2023-02-16T23:15:54.697Z,2.76
2023-02-16T23:18:22.087Z,2.77
2023-02-16T23:20:49.354Z,2.79
2023-02-16T23:23:16.681Z,2.79
2023-02-16T23:25:49.388Z,2.80
2023-02-16T23:28:19.041Z,2.81
2023-02-16T23:30:47.679Z,2.81
2023-02-16T23:33:24.236Z,2.80
2023-02-16T23:35:55.905Z,2.80
2023-02-16T23:38:30.928Z,2.80
2023-02-16T23:41:09.441Z,2.80
2023-02-16T23:43:40.588Z,2.80
2023-02-16T23:46:10.771Z,2.79
2023-02-16T23:48:45.678Z,2.78
2023-02-16T23:51:32.962Z,2.77
2023-02-16T23:54:00.367Z,2.77
2023-02-16T23:56:31.206Z,2.76
2023-02-16T23:59:02.740Z,2.76
